Time;durP1;ratioP1;P1;durP2;ratioP2;P2;SDS_P1;SDS_P2;PMS_P1;PMS_P2;Temp;Humidity;BMP_temperature;BMP_pressure;BME280_temperature;BME280_humidity;BME280_pressure;Samples;Min_cycle;Max_cycle;Signal;HPM_P1;HPM_P2
2022/01/20 00:01:12;;;;;;;11.77;5.63;;;;;;;-8.70;67.35;100128.81;5073785;28;20051;-81
2022/01/20 00:03:22;;;;;;;10.60;4.45;;;;;;;-8.63;67.55;100135.81;5073683;28;20059;-81
2022/01/20 00:08:55;;;;;;;7.18;4.70;;;;;;;-8.65;67.27;100141.81;5084261;28;20048;-79
2022/01/20 00:27:56;;;;;;;7.68;5.25;;;;;;;-8.87;67.85;100149.41;5074723;28;20048;-80
2022/01/20 00:33:15;;;;;;;5.72;3.97;;;;;;;-8.85;67.61;100157.16;5057555;28;20044;-80
2022/01/20 00:38:26;;;;;;;6.85;4.95;;;;;;;-8.95;67.83;100155.31;5059178;28;20046;-82
2022/01/20 00:40:54;;;;;;;5.85;4.63;;;;;;;-8.94;67.81;100149.31;5074514;28;20051;-81
2022/01/20 00:43:20;;;;;;;8.23;5.13;;;;;;;-8.98;67.67;100130.28;5073087;28;20099;-83
2022/01/20 00:45:47;;;;;;;10.77;5.63;;;;;;;-9.06;67.70;100135.38;5073240;28;20399;-82
2022/01/20 00:48:13;;;;;;;6.97;4.93;;;;;;;-9.08;67.87;100137.06;5072651;28;20036;-82
2022/01/20 00:50:39;;;;;;;11.90;6.50;;;;;;;-9.09;68.02;100150.00;5072795;28;20557;-83
2022/01/20 00:53:05;;;;;;;9.15;5.72;;;;;;;-9.07;67.85;100156.03;5072789;28;20044;-81
2022/01/20 00:55:32;;;;;;;13.82;8.20;;;;;;;-9.06;67.93;100150.03;5073854;28;20059;-83
2022/01/20 00:57:58;;;;;;;17.27;8.05;;;;;;;-9.03;68.09;100147.47;5072689;28;20483;-82
2022/01/20 01:00:24;;;;;;;33.88;11.95;;;;;;;-9.05;67.88;100155.22;5056286;28;20097;-82
2022/01/20 01:02:50;;;;;;;42.47;18.23;;;;;;;-9.10;68.20;100148.22;5056035;28;20099;-82
2022/01/20 01:05:16;;;;;;;46.13;18.13;;;;;;;-9.16;68.11;100137.81;5089562;28;20503;-81
2022/01/20 01:07:46;;;;;;;28.80;13.52;;;;;;;-9.19;68.24;100167.13;5072403;28;20084;-81
2022/01/20 01:10:12;;;;;;;;;;;;;;;-9.22;68.10;100164.50;5056182;28;20047;-82
2022/01/20 01:13:15;;;;;;;11.85;6.68;;;;;;;-9.31;68.19;100165.25;5073983;28;19931;-81
2022/01/20 01:15:36;;;;;;;11.82;5.18;;;;;;;-9.35;67.90;100173.84;5056830;28;20533;-81
2022/01/20 01:23:37;;;;;;;5.25;3.60;;;;;;;-9.35;67.50;100172.97;5073518;28;19923;-82
2022/01/20 01:26:08;;;;;;;4.28;3.50;;;;;;;-9.36;67.44;100176.41;5039170;28;20045;-82
2022/01/20 01:28:34;;;;;;;5.50;3.75;;;;;;;-9.43;67.46;100175.44;5071868;28;20082;-82
2022/01/20 01:33:55;;;;;;;2.78;2.50;;;;;;;-9.34;67.18;100164.34;5089587;28;20048;-81
2022/01/20 01:36:23;;;;;;;4.60;3.38;;;;;;;-9.38;67.20;100166.03;5057069;28;20062;-81
2022/01/20 01:38:50;;;;;;;3.00;2.63;;;;;;;-9.45;67.42;100152.97;5071835;28;20098;-82
2022/01/20 01:41:20;;;;;;;9.68;4.38;;;;;;;-9.37;67.31;100161.69;5038650;28;20048;-83
2022/01/20 01:43:49;;;;;;;10.13;3.80;;;;;;;-9.32;67.30;100167.84;5072706;28;20044;-81
2022/01/20 01:46:15;;;;;;;5.00;3.55;;;;;;;-9.28;67.29;100167.03;5071027;28;20138;-81
2022/01/20 01:48:42;;;;;;;6.57;3.88;;;;;;;-9.29;67.08;100167.84;5071885;28;20177;-81
2022/01/20 01:51:09;;;;;;;3.28;2.47;;;;;;;-9.23;67.09;100175.72;5072199;28;20047;-84
2022/01/20 01:53:37;;;;;;;5.75;4.00;;;;;;;-9.31;67.31;100165.25;5055099;28;20048;-82
2022/01/20 01:56:03;;;;;;;6.20;3.78;;;;;;;-9.28;67.39;100176.50;5055942;28;20126;-81
2022/01/20 01:58:30;;;;;;;6.65;3.58;;;;;;;-9.31;67.28;100160.06;5055679;28;20044;-81
2022/01/20 02:01:28;;;;;;;5.20;3.50;;;;;;;-9.27;67.69;100150.63;5041975;28;20097;-82
2022/01/20 02:04:00;;;;;;;6.85;3.67;;;;;;;-9.21;67.54;100165.34;5072012;28;20044;-80
2022/01/20 02:09:33;;;;;;;6.82;3.53;;;;;;;-9.26;67.78;100157.53;5061950;28;20113;-81
2022/01/20 02:20:14;;;;;;;6.10;3.25;;;;;;;-9.25;67.44;100148.03;5071548;28;20044;-82
2022/01/20 02:23:03;;;;;;;5.25;3.67;;;;;;;-9.26;67.55;100138.56;5064187;28;20064;-81
2022/01/20 02:25:36;;;;;;;7.95;3.70;;;;;;;-9.20;67.41;100152.44;5039448;28;20040;-81
2022/01/20 02:28:07;;;;;;;5.22;4.28;;;;;;;-9.17;67.29;100144.72;5038650;28;20044;-81
2022/01/20 02:30:34;;;;;;;6.63;4.40;;;;;;;-9.13;67.16;100143.91;5071291;28;20070;-81
2022/01/20 02:33:04;;;;;;;7.10;4.38;;;;;;;-9.17;67.12;100139.53;5054215;28;20453;-81
2022/01/20 02:35:32;;;;;;;5.97;3.85;;;;;;;-9.21;66.81;100140.38;5071282;28;20044;-80
2022/01/20 02:46:15;;;;;;;3.63;2.17;;;;;;;-9.23;66.54;100120.47;5077354;28;20090;-82
2022/01/20 02:48:42;;;;;;;4.50;3.80;;;;;;;-9.32;66.73;100126.41;5058377;28;20040;-80
2022/01/20 02:51:08;;;;;;;6.25;4.13;;;;;;;-9.41;66.73;100109.03;5058313;28;20058;-80
2022/01/20 02:53:34;;;;;;;3.67;2.75;;;;;;;-9.39;66.55;100103.88;5058444;28;20048;-82
2022/01/20 02:56:00;;;;;;;8.27;5.38;;;;;;;-9.37;66.82;100102.16;5074732;28;20047;-81
2022/01/20 02:58:26;;;;;;;9.45;5.30;;;;;;;-9.27;66.94;100100.56;5062569;28;20044;-81
2022/01/20 03:00:52;;;;;;;6.47;4.20;;;;;;;-9.20;66.73;100108.44;5069082;28;20563;-83
2022/01/20 03:03:18;;;;;;;9.02;4.38;;;;;;;-9.13;66.60;100094.69;5084123;28;20383;-82
2022/01/20 03:05:45;;;;;;;7.85;4.22;;;;;;;-9.09;66.48;100104.25;5080087;28;20424;-82
2022/01/20 03:08:11;;;;;;;7.15;4.95;;;;;;;-9.13;66.48;100102.47;5095900;28;20048;-83
2022/01/20 03:10:38;;;;;;;7.82;5.32;;;;;;;-9.03;66.54;100106.00;5079322;28;20380;-81
2022/01/20 03:13:05;;;;;;;11.57;5.47;;;;;;;-9.07;66.55;100099.94;5063075;28;20498;-82
2022/01/20 03:15:34;;;;;;;6.95;4.80;;;;;;;-8.97;66.32;100097.47;5062594;28;20040;-82
2022/01/20 03:18:01;;;;;;;7.78;5.00;;;;;;;-8.91;66.20;100100.09;5079170;28;20036;-83
2022/01/20 03:20:27;;;;;;;6.25;4.60;;;;;;;-8.89;66.13;100094.09;5094930;28;20075;-83
2022/01/20 03:22:53;;;;;;;6.57;4.82;;;;;;;-8.90;65.79;100092.34;5077798;28;20063;-82
2022/01/20 03:25:19;;;;;;;7.82;4.93;;;;;;;-8.86;65.79;100090.66;5094676;28;20487;-82
2022/01/20 03:27:46;;;;;;;8.63;5.75;;;;;;;-8.83;66.15;100093.28;5111832;28;20044;-82
2022/01/20 03:30:13;;;;;;;9.38;5.50;;;;;;;-8.87;66.02;100091.53;5095071;28;20137;-81
2022/01/20 03:32:39;;;;;;;13.10;5.68;;;;;;;-8.86;65.76;100078.56;5070433;28;20020;-81
2022/01/20 03:35:07;;;;;;;9.77;5.40;;;;;;;-8.83;65.96;100091.56;5081945;28;20075;-82
2022/01/20 03:37:34;;;;;;;13.50;5.93;;;;;;;-8.98;66.19;100091.41;5102726;28;20040;-82
2022/01/20 03:40:05;;;;;;;9.35;4.47;;;;;;;-8.90;65.97;100105.31;5078560;28;20032;-82
2022/01/20 03:42:31;;;;;;;8.50;4.43;;;;;;;-8.98;65.97;100095.72;5108488;28;20029;-80
2022/01/20 03:44:57;;;;;;;11.40;5.47;;;;;;;-9.01;65.57;100106.06;5116764;28;20052;-80
2022/01/20 03:47:25;;;;;;;7.00;4.63;;;;;;;-9.15;66.20;100093.81;5098441;28;20047;-82
2022/01/20 03:50:06;;;;;;;8.35;5.20;;;;;;;-9.19;66.18;100102.38;5044688;28;20154;-82
2022/01/20 03:52:33;;;;;;;10.75;5.32;;;;;;;-9.24;66.53;100110.97;5081442;28;20044;-81
2022/01/20 03:54:59;;;;;;;10.48;5.68;;;;;;;-9.22;66.77;100120.47;5094522;28;20043;-81
2022/01/20 03:57:25;;;;;;;10.43;6.20;;;;;;;-9.22;66.74;100115.28;5094217;28;20483;-79
2022/01/20 04:00:22;;;;;;;5.75;3.58;;;;;;;-9.27;66.78;100106.63;5081849;28;20051;-78
2022/01/20 04:02:59;;;;;;;9.73;5.72;;;;;;;-9.36;66.96;100101.34;5094697;28;20036;-80
2022/01/20 04:06:17;;;;;;;13.57;5.78;;;;;;;-9.41;66.89;100084.88;5095197;28;20403;-80
2022/01/20 04:08:41;;;;;;;12.82;6.60;;;;;;;-9.38;66.97;100092.66;5075025;28;20052;-80
2022/01/20 04:11:10;;;;;;;5.35;4.18;;;;;;;-9.39;67.37;100093.53;5060570;28;20052;-80
2022/01/20 04:13:37;;;;;;;9.77;5.00;;;;;;;-9.52;67.34;100086.44;5060940;28;20043;-82
2022/01/20 04:16:21;;;;;;;11.40;6.07;;;;;;;-9.54;67.51;100084.72;5060762;28;20406;-84
2022/01/20 04:18:55;;;;;;;15.70;6.70;;;;;;;-9.52;67.76;100082.13;5045143;28;20046;-80
2022/01/20 04:21:22;;;;;;;11.05;6.30;;;;;;;-9.42;67.45;100088.31;5095565;27;20134;-79
2022/01/20 04:23:48;;;;;;;12.57;5.95;;;;;;;-9.23;68.41;100094.56;5084860;28;20048;-89
2022/01/20 04:26:15;;;;;;;11.45;5.43;;;;;;;-9.35;68.34;100091.00;5044953;28;20561;-81
2022/01/20 04:28:41;;;;;;;15.75;5.53;;;;;;;-9.16;68.24;100106.75;5039037;28;20143;-83
2022/01/20 04:31:07;;;;;;;14.05;6.05;;;;;;;-9.12;67.69;100103.34;5055727;28;20420;-85
2022/01/20 04:33:33;;;;;;;13.52;6.75;;;;;;;-8.94;67.71;100097.50;5055576;28;20044;-83
2022/01/20 04:35:59;;;;;;;11.43;5.50;;;;;;;-8.79;67.37;100092.47;5072186;28;20037;-79
2022/01/20 04:38:25;;;;;;;15.15;5.20;;;;;;;-8.79;66.92;100084.69;5055570;28;20139;-78
2022/01/20 04:40:52;;;;;;;10.43;5.70;;;;;;;-8.80;66.51;100085.53;5055809;28;20103;-80
2022/01/20 04:43:19;;;;;;;6.65;4.50;;;;;;;-8.97;66.58;100081.91;5057403;28;20041;-80
2022/01/20 04:45:53;;;;;;;16.80;6.55;;;;;;;-8.92;66.50;100095.78;5039133;28;20041;-83
2022/01/20 04:48:48;;;;;;;6.70;4.70;;;;;;;-8.86;66.88;100101.03;5039589;28;20433;-75
2022/01/20 04:59:38;;;;;;;8.52;5.35;;;;;;;-8.66;65.94;100119.38;5058870;28;20131;-78
2022/01/20 05:02:04;;;;;;;8.20;5.53;;;;;;;-8.63;65.78;100109.91;5038435;28;20127;-77
2022/01/20 05:04:53;;;;;;;;;;;;;;;-8.36;65.99;100114.41;5076448;28;20414;-76
2022/01/20 05:07:35;;;;;;;7.47;5.38;;;;;;;-8.25;66.80;100106.72;5092360;28;19927;-81
2022/01/20 05:10:07;;;;;;;12.93;5.85;;;;;;;-8.08;66.00;100104.28;5059423;28;20044;-76
2022/01/20 05:13:02;;;;;;;16.80;6.43;;;;;;;-8.12;64.40;100110.31;5076015;28;20071;-77
2022/01/20 05:15:28;;;;;;;9.40;6.03;;;;;;;-8.24;64.25;100098.09;5062741;28;20093;-77
2022/01/20 05:17:55;;;;;;;23.10;8.55;;;;;;;-8.14;64.32;100099.91;5092865;28;20079;-79
2022/01/20 05:20:21;;;;;;;12.85;7.78;;;;;;;-8.14;63.88;100102.50;5042399;28;20048;-79
2022/01/20 05:22:48;;;;;;;14.18;7.47;;;;;;;-8.09;63.88;100098.19;5059008;28;20094;-78
2022/01/20 05:25:18;;;;;;;11.45;7.65;;;;;;;-8.01;63.97;100102.59;5044346;28;20178;-77
2022/01/20 05:27:45;;;;;;;10.63;6.50;;;;;;;-8.09;63.39;100103.41;5054827;28;20059;-80
2022/01/20 05:30:12;;;;;;;18.17;9.40;;;;;;;-8.03;63.66;100104.31;5064055;28;20075;-78
2022/01/20 05:32:44;;;;;;;17.52;9.13;;;;;;;-7.93;63.77;100082.78;5089696;28;20040;-77
2022/01/20 05:35:11;;;;;;;18.83;11.00;;;;;;;-7.78;63.37;100100.13;5077736;28;20054;-76
2022/01/20 05:37:38;;;;;;;16.50;10.20;;;;;;;-7.75;63.10;100098.44;5055492;28;20099;-79
2022/01/20 05:40:05;;;;;;;22.63;11.60;;;;;;;-7.77;63.05;100088.91;5055123;28;20044;-77
2022/01/20 05:42:31;;;;;;;19.50;8.57;;;;;;;-7.72;62.65;100082.88;5038721;28;20044;-79
2022/01/20 05:45:04;;;;;;;13.35;7.80;;;;;;;-7.70;62.35;100075.97;5088569;28;20507;-78
2022/01/20 05:47:32;;;;;;;10.48;6.72;;;;;;;-7.54;62.41;100083.84;5038728;28;20048;-78
2022/01/20 05:50:10;;;;;;;11.60;5.82;;;;;;;-7.56;61.62;100083.81;5071865;28;20491;-77
2022/01/20 05:52:41;;;;;;;;;;;;;;;-7.42;61.57;100086.50;5038103;28;20040;-79
2022/01/20 05:55:13;;;;;;;5.68;3.85;;;;;;;-7.52;61.16;100071.72;5086357;28;19927;-79
2022/01/20 05:57:42;;;;;;;8.70;4.97;;;;;;;-7.41;61.47;100080.44;5055357;28;20151;-80
2022/01/20 06:00:16;;;;;;;5.50;4.25;;;;;;;-7.32;60.81;100083.09;5054998;28;20052;-79
2022/01/20 06:05:29;;;;;;;13.90;4.55;;;;;;;-7.15;60.85;100089.19;5057768;28;20491;-83
2022/01/20 06:07:55;;;;;;;5.78;4.40;;;;;;;-7.10;60.16;100078.84;5055127;28;20044;-80
2022/01/20 06:10:21;;;;;;;6.88;3.72;;;;;;;-7.16;59.98;100069.28;5054644;28;20468;-79
2022/01/20 06:12:48;;;;;;;4.50;3.70;;;;;;;-7.00;59.96;100080.56;5038368;28;20044;-78
2022/01/20 06:15:14;;;;;;;5.13;4.20;;;;;;;-7.05;59.69;100076.25;5038162;28;20062;-77
2022/01/20 06:17:41;;;;;;;5.40;3.83;;;;;;;-7.12;59.69;100076.22;5038178;28;20044;-77
2022/01/20 06:20:11;;;;;;;7.75;4.05;;;;;;;-6.93;59.63;100084.06;5055442;28;20055;-77
2022/01/20 06:22:38;;;;;;;5.15;3.80;;;;;;;-6.83;59.33;100084.97;5038464;28;20076;-77
2022/01/20 06:25:04;;;;;;;6.13;4.60;;;;;;;-6.83;58.81;100083.22;5088403;28;20075;-78
2022/01/20 06:27:32;;;;;;;4.60;3.60;;;;;;;-7.07;58.91;100062.38;5054585;28;20636;-78
2022/01/20 06:29:58;;;;;;;7.32;4.55;;;;;;;-6.78;58.98;100078.03;5038079;28;20143;-78
2022/01/20 06:32:24;;;;;;;6.85;4.53;;;;;;;-6.70;59.21;100065.91;5073048;28;20131;-78
2022/01/20 06:34:50;;;;;;;8.23;4.80;;;;;;;-6.67;58.60;100074.56;5075093;28;20495;-80
2022/01/20 06:37:19;;;;;;;;;;;;;;;-6.74;58.48;100052.03;5059580;28;20607;-77
2022/01/20 06:39:45;;;;;;;8.30;4.35;;;;;;;-6.71;58.61;100052.03;5092223;28;19952;-77
2022/01/20 06:42:12;;;;;;;16.15;4.47;;;;;;;-6.56;58.91;100034.72;5058403;28;20045;-77
2022/01/20 06:44:38;;;;;;;8.40;4.43;;;;;;;-6.48;58.58;100038.19;5042109;28;20048;-78
2022/01/20 06:47:05;;;;;;;5.78;4.30;;;;;;;-6.39;58.17;100043.41;5075011;28;20127;-78
2022/01/20 06:49:33;;;;;;;7.43;4.65;;;;;;;-6.12;58.49;100043.38;5058568;28;20044;-80
2022/01/20 06:52:05;;;;;;;8.68;4.53;;;;;;;-6.02;57.91;100040.75;5075015;28;20511;-79
2022/01/20 06:54:31;;;;;;;6.10;4.50;;;;;;;-5.95;57.42;100039.84;5074921;28;20076;-77
2022/01/20 06:56:59;;;;;;;7.93;4.65;;;;;;;-5.75;56.87;100042.41;5058221;28;20040;-77
2022/01/20 06:59:26;;;;;;;8.50;4.65;;;;;;;-5.72;56.68;100042.38;5042062;28;20044;-77
2022/01/20 07:01:53;;;;;;;7.18;4.97;;;;;;;-5.58;56.38;100050.16;5057881;28;20055;-78
2022/01/20 07:04:27;;;;;;;8.13;5.40;;;;;;;-5.54;56.48;100057.06;5043830;28;20541;-78
2022/01/20 07:06:54;;;;;;;6.88;5.15;;;;;;;-5.42;55.49;100060.50;5058046;28;20048;-77
2022/01/20 07:09:39;;;;;;;9.25;4.78;;;;;;;-5.19;55.90;100050.00;5075171;28;20091;-77
2022/01/20 07:12:18;;;;;;;10.27;5.95;;;;;;;-5.01;56.16;100041.19;5057930;28;20048;-79
2022/01/20 07:14:45;;;;;;;10.18;6.32;;;;;;;-4.85;55.17;100042.00;5041980;28;20037;-77
2022/01/20 07:17:11;;;;;;;10.95;6.15;;;;;;;-4.84;54.72;100043.72;5077953;28;20072;-78
2022/01/20 07:19:42;;;;;;;96.75;42.30;;;;;;;-4.83;54.58;100048.03;5047529;28;20059;-77
2022/01/20 07:22:10;;;;;;;8.90;6.43;;;;;;;-4.76;53.99;100044.53;5059037;28;20036;-78
2022/01/20 07:24:37;;;;;;;10.32;6.35;;;;;;;-4.76;54.15;100054.94;5057719;28;20044;-79
2022/01/20 07:27:13;;;;;;;15.75;6.80;;;;;;;-5.08;54.29;100049.06;5074561;28;20094;-77
2022/01/20 07:29:39;;;;;;;11.60;6.78;;;;;;;-5.19;54.48;100044.78;5040817;28;20541;-79
2022/01/20 07:32:06;;;;;;;15.68;8.05;;;;;;;-5.06;54.90;100056.00;5057436;28;20410;-78
2022/01/20 07:34:34;;;;;;;12.80;6.65;;;;;;;-4.99;54.64;100046.41;5041222;28;20139;-79
2022/01/20 07:37:01;;;;;;;10.63;6.43;;;;;;;-5.08;54.67;100042.09;5074472;28;20039;-79
2022/01/20 07:39:28;;;;;;;15.63;6.40;;;;;;;-5.06;54.68;100049.94;5057482;28;20135;-79
2022/01/20 07:41:53;;;;;;;9.65;6.22;;;;;;;-5.05;54.13;100038.63;5040760;28;20506;-78
2022/01/20 07:44:58;;;;;;;8.88;6.05;;;;;;;-4.90;54.38;100056.78;4996031;28;20053;-79
2022/01/20 07:47:38;;;;;;;10.57;5.65;;;;;;;-4.55;54.58;100037.41;5011026;28;20073;-79
2022/01/20 07:50:05;;;;;;;13.00;6.28;;;;;;;-4.39;53.00;100044.25;5022314;28;20091;-78
2022/01/20 07:52:31;;;;;;;10.05;5.97;;;;;;;-4.16;53.23;100046.66;5107824;28;20048;-79
2022/01/20 07:54:57;;;;;;;12.30;7.35;;;;;;;-4.03;52.55;100042.19;5058167;28;20048;-78
2022/01/20 07:57:23;;;;;;;14.30;7.40;;;;;;;-4.06;51.81;100052.66;5040506;28;20139;-79
2022/01/20 07:59:49;;;;;;;11.55;6.18;;;;;;;-3.89;52.28;100045.53;5056998;28;20040;-78
2022/01/20 08:02:16;;;;;;;20.45;7.00;;;;;;;-3.99;51.44;100046.50;5040450;28;20051;-78
2022/01/20 08:04:43;;;;;;;11.30;6.15;;;;;;;-3.85;51.86;100051.59;5057220;28;20113;-78
2022/01/20 08:07:10;;;;;;;10.13;6.45;;;;;;;-4.01;51.04;100040.44;5074015;28;20041;-78
2022/01/20 08:09:39;;;;;;;14.77;7.07;;;;;;;-4.18;51.73;100037.97;5073877;28;20131;-79
2022/01/20 08:12:09;;;;;;;13.38;6.43;;;;;;;-4.44;51.47;100043.41;5041567;28;20389;-80
2022/01/20 08:14:35;;;;;;;12.65;6.63;;;;;;;-4.51;52.55;100039.13;5039984;28;20499;-78
2022/01/20 08:17:04;;;;;;;17.63;6.95;;;;;;;-4.75;52.41;100038.41;5073469;28;20055;-79
2022/01/20 08:19:34;;;;;;;12.27;7.30;;;;;;;-4.96;52.92;100039.44;5041069;28;20465;-78
2022/01/20 08:21:59;;;;;;;10.98;6.15;;;;;;;-4.89;53.77;100033.31;5073446;28;20041;-78
2022/01/20 08:24:26;;;;;;;15.80;7.00;;;;;;;-4.75;53.34;100035.81;5040098;28;20040;-80
2022/01/20 08:26:53;;;;;;;10.15;6.95;;;;;;;-4.79;53.27;100028.88;5056805;28;20048;-78
2022/01/20 08:29:19;;;;;;;12.60;6.97;;;;;;;-4.81;52.93;100025.44;5040476;28;20102;-77
2022/01/20 08:31:45;;;;;;;10.27;7.07;;;;;;;-4.93;53.46;100020.28;5072958;28;20143;-78
2022/01/20 08:34:30;;;;;;;12.52;6.50;;;;;;;-4.78;53.18;100022.78;5073203;28;20080;-79
2022/01/20 08:37:29;;;;;;;;;;;;;;;-4.78;53.75;100024.53;5061884;28;20048;-78
2022/01/20 08:39:55;;;;;;;11.98;6.32;;;;;;;-4.70;53.35;100018.41;5072604;28;20397;-78
2022/01/20 08:42:23;;;;;;;19.65;6.93;;;;;;;-4.46;53.89;100019.09;5039665;28;20063;-77
2022/01/20 08:44:49;;;;;;;11.95;6.47;;;;;;;-4.25;53.30;100011.06;5072619;28;20059;-78
2022/01/20 08:47:20;;;;;;;11.80;6.95;;;;;;;-4.13;53.01;99999.66;5072965;28;20135;-79
2022/01/20 08:49:48;;;;;;;16.08;9.00;;;;;;;-3.82;52.56;100005.41;5056982;28;20045;-78
2022/01/20 08:52:15;;;;;;;14.88;6.78;;;;;;;-3.53;52.11;100006.81;5055970;28;20086;-78
2022/01/20 08:54:45;;;;;;;13.30;6.97;;;;;;;-3.72;51.59;100011.41;5089281;28;20047;-78
2022/01/20 08:57:23;;;;;;;15.60;7.97;;;;;;;-3.64;52.19;100021.75;5057822;28;20048;-78
2022/01/20 08:59:49;;;;;;;20.15;8.35;;;;;;;-3.49;51.80;100008.50;5055990;28;20286;-78
2022/01/20 09:02:15;;;;;;;17.05;7.72;;;;;;;-3.15;51.74;100010.69;5038657;28;20504;-78
2022/01/20 09:04:41;;;;;;;19.63;8.30;;;;;;;-3.00;50.90;100005.25;5039011;28;20044;-79
2022/01/20 09:07:29;;;;;;;21.50;8.32;;;;;;;-3.10;50.88;100001.03;5072899;28;20443;-77
2022/01/20 09:09:56;;;;;;;24.88;11.18;;;;;;;-3.07;50.82;100008.81;5055817;28;20040;-77
2022/01/20 09:17:47;;;;;;;18.77;7.40;;;;;;;-3.34;50.67;99997.88;5058316;28;20048;-79
2022/01/20 09:20:14;;;;;;;13.68;7.05;;;;;;;-3.21;50.93;99991.56;5071936;28;20488;-78
2022/01/20 09:22:40;;;;;;;12.55;6.63;;;;;;;-3.32;50.81;99982.16;5072138;28;20055;-78
2022/01/20 09:25:06;;;;;;;12.40;6.43;;;;;;;-3.06;50.58;99979.16;5071772;28;20139;-77
2022/01/20 09:27:34;;;;;;;19.88;8.18;;;;;;;-3.15;50.84;99979.31;5071884;28;20043;-77
2022/01/20 09:30:02;;;;;;;17.08;6.28;;;;;;;-3.04;50.61;99980.03;5055316;28;20048;-79
2022/01/20 09:32:31;;;;;;;14.67;7.27;;;;;;;-2.92;50.74;99974.59;5023411;28;20086;-78
2022/01/20 09:34:59;;;;;;;13.85;6.13;;;;;;;-2.86;49.64;99984.94;5104957;28;20287;-78
2022/01/20 09:37:26;;;;;;;12.13;5.70;;;;;;;-2.82;50.07;99986.66;5071743;28;20136;-77
2022/01/20 09:39:52;;;;;;;7.03;4.95;;;;;;;-2.93;49.62;99983.34;5072319;28;20447;-80
2022/01/20 09:42:45;;;;;;;13.80;6.05;;;;;;;-2.98;49.88;99986.00;5070654;28;20067;-78
2022/01/20 09:45:11;;;;;;;12.57;5.55;;;;;;;-3.06;49.90;99987.00;5072094;28;20052;-78
2022/01/20 09:47:37;;;;;;;9.57;5.15;;;;;;;-3.11;49.77;99973.16;5071854;28;20044;-77
2022/01/20 09:50:10;;;;;;;9.48;5.50;;;;;;;-2.98;49.82;99974.69;5080807;28;20044;-80
2022/01/20 09:52:47;;;;;;;7.38;5.22;;;;;;;-2.69;49.03;99977.72;5072128;28;20458;-79
2022/01/20 09:55:27;;;;;;;30.02;14.20;;;;;;;-2.61;48.76;99974.13;5040541;28;20044;-78
2022/01/20 09:57:54;;;;;;;8.43;4.28;;;;;;;-2.60;48.73;99974.06;5079720;28;20051;-78
2022/01/20 10:00:20;;;;;;;6.90;4.78;;;;;;;-2.52;48.21;99963.47;5041766;28;20044;-80
2022/01/20 10:02:54;;;;;;;12.00;5.07;;;;;;;-2.50;47.85;99953.84;5071815;28;20040;-77
2022/01/20 10:05:25;;;;;;;5.72;3.85;;;;;;;-2.75;47.86;99956.00;5038446;28;20063;-78
2022/01/20 10:07:52;;;;;;;8.05;4.72;;;;;;;-2.65;48.05;99964.59;5054168;28;20040;-79
2022/01/20 10:10:44;;;;;;;8.52;4.38;;;;;;;-2.61;47.64;99968.88;5025228;28;20040;-84
2022/01/20 10:13:28;;;;;;;5.20;3.30;;;;;;;-2.89;47.83;99971.94;5025176;28;20044;-77
2022/01/20 10:16:08;;;;;;;7.28;3.75;;;;;;;-3.03;47.91;99963.44;5071309;28;20048;-78
2022/01/20 10:18:47;;;;;;;6.10;4.10;;;;;;;-3.29;48.26;99943.75;5056326;28;20480;-80
2022/01/20 10:21:13;;;;;;;7.60;3.60;;;;;;;-3.28;48.29;99950.69;5088054;28;20040;-76
2022/01/20 10:24:11;;;;;;;5.28;4.03;;;;;;;-3.20;49.07;99950.59;5070114;28;20076;-79
2022/01/20 10:26:49;;;;;;;8.35;4.05;;;;;;;-3.19;49.21;99955.81;5057374;28;20448;-80
2022/01/20 10:29:16;;;;;;;6.22;3.17;;;;;;;-3.47;48.75;99949.22;5054283;28;20114;-81
2022/01/20 10:31:44;;;;;;;10.10;4.28;;;;;;;-3.58;48.96;99956.34;5087773;28;20068;-80
2022/01/20 10:34:30;;;;;;;8.27;4.10;;;;;;;-3.71;49.09;99955.66;5087394;28;20388;-80
2022/01/20 10:37:01;;;;;;;5.68;4.30;;;;;;;-3.95;49.51;99962.00;5039065;28;20408;-79
2022/01/20 10:39:40;;;;;;;3.65;2.85;;;;;;;-3.99;49.19;99957.69;5023758;28;20036;-80
2022/01/20 10:42:08;;;;;;;5.82;3.47;;;;;;;-4.13;49.32;99947.44;5054156;28;20040;-78
2022/01/20 10:44:41;;;;;;;3.40;3.10;;;;;;;-4.59;49.83;99952.22;5037630;28;20041;-80
2022/01/20 10:47:26;;;;;;;4.88;3.50;;;;;;;-4.75;50.39;99949.75;5070530;28;20048;-79
2022/01/20 10:49:53;;;;;;;6.60;4.15;;;;;;;-4.58;50.70;99959.19;5039876;28;20068;-78
2022/01/20 10:52:23;;;;;;;4.38;3.55;;;;;;;-4.57;50.15;99956.56;5037682;28;20037;-79
2022/01/20 10:54:52;;;;;;;10.02;4.15;;;;;;;-4.73;49.87;99954.97;5054525;28;20044;-80
2022/01/20 10:57:27;;;;;;;5.80;3.65;;;;;;;-4.68;50.36;99979.25;5048578;28;20041;-79
2022/01/20 10:59:55;;;;;;;6.07;4.07;;;;;;;-4.54;50.26;99968.72;5047699;28;20095;-79
2022/01/20 11:02:33;;;;;;;6.65;4.00;;;;;;;-4.56;49.63;99978.28;5041941;28;20044;-81
2022/01/20 11:04:59;;;;;;;18.90;3.88;;;;;;;-4.44;49.96;99967.72;5070365;28;20538;-79
2022/01/20 11:07:26;;;;;;;8.25;4.10;;;;;;;-4.55;49.69;99980.00;5070482;28;20045;-79
2022/01/20 11:10:00;;;;;;;7.18;3.22;;;;;;;-4.48;51.03;99960.81;5070342;28;20056;-79
2022/01/20 11:12:44;;;;;;;4.80;3.50;;;;;;;-4.43;50.50;99986.00;5057912;28;20044;-79
2022/01/20 11:15:31;;;;;;;6.90;4.40;;;;;;;-4.32;49.29;99988.53;5056548;28;20052;-81
2022/01/20 11:17:59;;;;;;;8.45;4.32;;;;;;;-4.31;49.07;99990.25;5072726;28;20049;-79
2022/01/20 11:20:30;;;;;;;8.68;4.40;;;;;;;-4.34;49.25;99994.63;5094124;28;20051;-79
2022/01/20 11:23:04;;;;;;;5.28;3.35;;;;;;;-4.23;49.04;100004.06;5077947;28;20086;-79
2022/01/20 11:25:43;;;;;;;5.47;3.65;;;;;;;-4.14;48.52;99990.06;5079171;28;20494;-79
2022/01/20 11:28:28;;;;;;;5.10;3.53;;;;;;;-4.21;48.37;100002.34;5066262;28;20043;-78
2022/01/20 11:31:07;;;;;;;5.18;3.30;;;;;;;-4.52;48.44;99985.19;5063950;28;20055;-78
2022/01/20 11:33:56;;;;;;;5.07;3.58;;;;;;;-4.66;48.57;99990.56;5066410;28;20096;-82
2022/01/20 11:36:24;;;;;;;5.82;3.97;;;;;;;-4.79;48.87;99987.16;5094242;28;20491;-81
2022/01/20 11:38:54;;;;;;;7.70;3.53;;;;;;;-4.91;48.84;99976.81;5077302;28;20052;-80
2022/01/20 11:41:22;;;;;;;15.43;4.10;;;;;;;-5.23;49.90;99972.72;5062148;28;20075;-82
2022/01/20 11:43:52;;;;;;;6.18;3.85;;;;;;;-5.04;56.77;99983.00;5079293;28;20051;-84
2022/01/20 11:46:25;;;;;;;7.93;4.15;;;;;;;-4.77;50.80;99980.19;5060463;28;20047;-81
2022/01/20 11:49:11;;;;;;;9.55;4.00;;;;;;;-5.01;49.83;99981.22;5063923;28;20036;-83
2022/01/20 11:51:56;;;;;;;13.10;4.40;;;;;;;-5.75;50.55;99985.13;5055755;28;20032;-82
2022/01/20 11:54:36;;;;;;;6.90;3.90;;;;;;;-6.33;51.98;99980.94;5077563;28;20060;-82
2022/01/20 11:57:31;;;;;;;10.73;4.25;;;;;;;-6.67;52.31;100006.13;5060738;28;20044;-83
2022/01/20 12:00:02;;;;;;;5.70;3.58;;;;;;;-6.85;53.02;99996.56;5072806;28;20087;-80
2022/01/20 12:02:38;;;;;;;5.65;4.32;;;;;;;-7.07;53.21;100000.88;5043105;28;20519;-81
2022/01/20 12:05:28;;;;;;;5.10;3.85;;;;;;;-7.40;54.25;99991.28;5040775;28;20057;-81
2022/01/20 12:08:20;;;;;;;6.07;4.18;;;;;;;-7.62;54.83;100001.59;5031709;28;20049;-81
2022/01/20 12:11:15;;;;;;;6.03;3.90;;;;;;;-7.85;55.62;100003.25;5039373;28;20049;-82
2022/01/20 12:13:49;;;;;;;5.25;3.67;;;;;;;-8.06;56.04;99991.88;5056723;28;20571;-82
2022/01/20 12:16:19;;;;;;;6.82;4.25;;;;;;;-8.19;56.28;99991.81;5039596;28;20052;-82
2022/01/20 12:18:55;;;;;;;7.38;4.30;;;;;;;-8.33;56.70;100005.53;5038895;28;20514;-81
2022/01/20 12:21:22;;;;;;;7.47;3.85;;;;;;;-8.58;57.81;99993.28;5032692;28;20052;-82
2022/01/20 12:23:48;;;;;;;4.57;3.70;;;;;;;-8.69;57.74;99990.63;5042393;28;20052;-81
2022/01/20 12:26:15;;;;;;;6.55;4.13;;;;;;;-8.80;58.09;99981.88;5040194;28;20174;-80
2022/01/20 12:28:41;;;;;;;5.90;3.60;;;;;;;-8.87;58.17;99980.13;5056337;28;20442;-81
2022/01/20 12:31:18;;;;;;;6.38;3.95;;;;;;;-8.99;59.04;99991.22;5056236;28;20419;-81
2022/01/20 12:33:46;;;;;;;5.63;3.70;;;;;;;-9.07;58.88;99988.56;5042904;28;20041;-80
2022/01/20 12:36:14;;;;;;;6.65;3.80;;;;;;;-9.18;58.73;99985.00;5039976;28;20047;-80
2022/01/20 12:38:40;;;;;;;5.97;4.03;;;;;;;-9.33;59.39;99985.72;5056437;28;20484;-80
2022/01/20 12:41:08;;;;;;;4.95;3.65;;;;;;;-9.40;60.25;99985.66;5056495;28;20075;-81
2022/01/20 12:43:39;;;;;;;5.40;3.22;;;;;;;-9.52;59.99;99980.34;5040044;28;20098;-80
2022/01/20 12:46:06;;;;;;;6.57;4.20;;;;;;;-9.63;61.18;99985.41;5077971;28;20043;-81
2022/01/20 12:48:32;;;;;;;7.13;4.00;;;;;;;-9.64;61.05;99979.34;5104088;28;20059;-81
2022/01/20 12:51:04;;;;;;;9.27;4.25;;;;;;;-9.65;61.27;99982.81;5056175;28;20380;-81